sensor_id;sensor_type;location;lat;lon;timestamp;pressure;altitude;pressure_sealevel;temperature;humidity
74960;BME280;63518;49.572;1.106;2023-03-21T00:00:44;99589.56;;;9.39;76.95
74960;BME280;63518;49.572;1.106;2023-03-21T00:03:12;99612.34;;;9.60;76.48
74960;BME280;63518;49.572;1.106;2023-03-21T00:05:41;99607.50;;;9.27;76.16
74960;BME280;63518;49.572;1.106;2023-03-21T00:08:08;99603.03;;;9.46;76.84
74960;BME280;63518;49.572;1.106;2023-03-21T00:10:35;99600.34;;;9.10;77.61
74960;BME280;63518;49.572;1.106;2023-03-21T00:13:14;99578.34;;;9.21;76.68
74960;BME280;63518;49.572;1.106;2023-03-21T00:15:41;99596.19;;;9.33;77.03
74960;BME280;63518;49.572;1.106;2023-03-21T00:18:48;99556.38;;;8.90;78.63
74960;BME280;63518;49.572;1.106;2023-03-21T00:21:20;99572.28;;;9.24;76.07
74960;BME280;63518;49.572;1.106;2023-03-21T00:24:07;99571.44;;;9.28;77.16
74960;BME280;63518;49.572;1.106;2023-03-21T00:26:35;99592.91;;;9.16;77.11
74960;BME280;63518;49.572;1.106;2023-03-21T00:29:04;99583.84;;;9.21;77.50
74960;BME280;63518;49.572;1.106;2023-03-21T00:31:31;99593.69;;;9.32;77.29
74960;BME280;63518;49.572;1.106;2023-03-21T00:34:01;99581.66;;;9.07;76.89
74960;BME280;63518;49.572;1.106;2023-03-21T00:36:28;99572.31;;;9.03;78.16
74960;BME280;63518;49.572;1.106;2023-03-21T00:38:58;99573.69;;;8.91;78.79
74960;BME280;63518;49.572;1.106;2023-03-21T00:41:27;99585.75;;;9.20;76.35
74960;BME280;63518;49.572;1.106;2023-03-21T00:44:09;99575.09;;;8.93;78.29
74960;BME280;63518;49.572;1.106;2023-03-21T00:46:37;99569.03;;;8.96;78.24
74960;BME280;63518;49.572;1.106;2023-03-21T00:49:17;99568.75;;;8.82;78.25
74960;BME280;63518;49.572;1.106;2023-03-21T00:51:46;99563.28;;;8.93;77.55
74960;BME280;63518;49.572;1.106;2023-03-21T00:54:17;99553.94;;;8.78;78.68
74960;BME280;63518;49.572;1.106;2023-03-21T00:56:44;99576.16;;;8.82;77.70
74960;BME280;63518;49.572;1.106;2023-03-21T00:59:11;99567.41;;;8.85;79.59
74960;BME280;63518;49.572;1.106;2023-03-21T01:01:39;99554.16;;;8.72;78.66
74960;BME280;63518;49.572;1.106;2023-03-21T01:04:06;99556.38;;;8.70;79.29
74960;BME280;63518;49.572;1.106;2023-03-21T01:06:41;99529.75;;;8.80;77.33
74960;BME280;63518;49.572;1.106;2023-03-21T01:09:20;99555.03;;;8.88;77.56
74960;BME280;63518;49.572;1.106;2023-03-21T01:11:48;99541.53;;;8.55;78.70
74960;BME280;63518;49.572;1.106;2023-03-21T01:14:17;99531.09;;;8.83;77.90
74960;BME280;63518;49.572;1.106;2023-03-21T01:16:52;99535.47;;;8.69;78.23
74960;BME280;63518;49.572;1.106;2023-03-21T01:19:23;99531.63;;;9.00;76.50
74960;BME280;63518;49.572;1.106;2023-03-21T01:22:14;99540.16;;;8.83;78.03
74960;BME280;63518;49.572;1.106;2023-03-21T01:24:41;99540.19;;;8.78;79.16
74960;BME280;63518;49.572;1.106;2023-03-21T01:27:23;99548.44;;;8.94;78.45
74960;BME280;63518;49.572;1.106;2023-03-21T01:29:50;99545.38;;;9.05;76.35
74960;BME280;63518;49.572;1.106;2023-03-21T01:32:18;99528.09;;;8.74;77.77
74960;BME280;63518;49.572;1.106;2023-03-21T01:34:45;99532.47;;;8.70;79.24
74960;BME280;63518;49.572;1.106;2023-03-21T01:37:12;99523.97;;;8.77;79.03
74960;BME280;63518;49.572;1.106;2023-03-21T01:39:40;99530.84;;;8.79;79.07
74960;BME280;63518;49.572;1.106;2023-03-21T01:42:12;99528.09;;;8.74;78.55
74960;BME280;63518;49.572;1.106;2023-03-21T01:44:57;99513.25;;;8.75;78.20
74960;BME280;63518;49.572;1.106;2023-03-21T01:47:25;99504.97;;;8.60;78.86
74960;BME280;63518;49.572;1.106;2023-03-21T01:49:56;99515.44;;;8.63;78.41
74960;BME280;63518;49.572;1.106;2023-03-21T01:52:35;99508.28;;;8.57;78.96
74960;BME280;63518;49.572;1.106;2023-03-21T01:55:07;99504.19;;;8.75;78.09
74960;BME280;63518;49.572;1.106;2023-03-21T01:57:43;99493.72;;;8.51;78.54
74960;BME280;63518;49.572;1.106;2023-03-21T02:00:33;99495.94;;;8.70;78.54
74960;BME280;63518;49.572;1.106;2023-03-21T02:03:02;99506.94;;;8.75;77.21
74960;BME280;63518;49.572;1.106;2023-03-21T02:06:01;99508.00;;;8.64;78.82
74960;BME280;63518;49.572;1.106;2023-03-21T02:08:31;99500.31;;;8.76;78.31
74960;BME280;63518;49.572;1.106;2023-03-21T02:11:07;99503.63;;;8.63;79.06
74960;BME280;63518;49.572;1.106;2023-03-21T02:13:36;99501.69;;;8.58;79.71
74960;BME280;63518;49.572;1.106;2023-03-21T02:19:23;99486.84;;;8.59;78.26
74960;BME280;63518;49.572;1.106;2023-03-21T02:27:41;99490.44;;;8.44;79.51
74960;BME280;63518;49.572;1.106;2023-03-21T02:46:49;99465.72;;;8.39;79.20
74960;BME280;63518;49.572;1.106;2023-03-21T02:52:41;99469.00;;;8.26;80.74
74960;BME280;63518;49.572;1.106;2023-03-21T02:55:18;99454.19;;;8.32;79.00
74960;BME280;63518;49.572;1.106;2023-03-21T02:57:47;99460.22;;;8.29;78.92
74960;BME280;63518;49.572;1.106;2023-03-21T03:00:18;99456.38;;;8.25;78.62
74960;BME280;63518;49.572;1.106;2023-03-21T03:02:48;99448.13;;;8.20;79.65
74960;BME280;63518;49.572;1.106;2023-03-21T03:05:36;99458.28;;;8.19;78.41
74960;BME280;63518;49.572;1.106;2023-03-21T03:08:34;99461.88;;;8.20;80.58
74960;BME280;63518;49.572;1.106;2023-03-21T03:11:32;99450.31;;;8.13;78.75
74960;BME280;63518;49.572;1.106;2023-03-21T03:17:42;99449.78;;;8.21;79.28
74960;BME280;63518;49.572;1.106;2023-03-21T03:20:27;99453.34;;;7.96;79.73
74960;BME280;63518;49.572;1.106;2023-03-21T03:26:03;99447.56;;;7.87;79.27
74960;BME280;63518;49.572;1.106;2023-03-21T03:28:38;99440.16;;;7.88;79.35
74960;BME280;63518;49.572;1.106;2023-03-21T03:31:10;99439.06;;;8.04;80.38
74960;BME280;63518;49.572;1.106;2023-03-21T03:33:44;99412.19;;;8.06;79.42
74960;BME280;63518;49.572;1.106;2023-03-21T03:36:14;99430.56;;;7.85;79.66
74960;BME280;63518;49.572;1.106;2023-03-21T03:39:01;99429.44;;;7.76;79.53
74960;BME280;63518;49.572;1.106;2023-03-21T03:41:33;99423.69;;;7.88;79.05
74960;BME280;63518;49.572;1.106;2023-03-21T03:44:22;99425.34;;;7.79;79.44
74960;BME280;63518;49.572;1.106;2023-03-21T03:47:09;99428.94;;;7.99;79.12
74960;BME280;63518;49.572;1.106;2023-03-21T03:49:51;99424.78;;;7.87;80.14
74960;BME280;63518;49.572;1.106;2023-03-21T03:52:27;99416.84;;;7.90;79.14
74960;BME280;63518;49.572;1.106;2023-03-21T03:54:55;99430.53;;;7.60;80.35
74960;BME280;63518;49.572;1.106;2023-03-21T03:57:25;99407.50;;;7.86;80.91
74960;BME280;63518;49.572;1.106;2023-03-21T03:59:52;99423.66;;;7.62;81.40
74960;BME280;63518;49.572;1.106;2023-03-21T04:02:20;99412.13;;;7.55;80.68
74960;BME280;63518;49.572;1.106;2023-03-21T04:04:47;99427.81;;;7.80;80.34
74960;BME280;63518;49.572;1.106;2023-03-21T04:07:19;99423.69;;;7.78;79.26
74960;BME280;63518;49.572;1.106;2023-03-21T04:09:47;99417.38;;;7.67;80.76
74960;BME280;63518;49.572;1.106;2023-03-21T04:12:14;99402.78;;;7.56;79.75
74960;BME280;63518;49.572;1.106;2023-03-21T04:14:41;99410.16;;;7.40;81.58
74960;BME280;63518;49.572;1.106;2023-03-21T04:17:13;99394.03;;;7.54;80.40
74960;BME280;63518;49.572;1.106;2023-03-21T04:19:41;99429.94;;;7.53;81.51
74960;BME280;63518;49.572;1.106;2023-03-21T04:22:08;99422.00;;;7.51;80.80
74960;BME280;63518;49.572;1.106;2023-03-21T04:24:37;99413.25;;;7.69;80.15
74960;BME280;63518;49.572;1.106;2023-03-21T04:27:05;99395.91;;;7.38;81.74
74960;BME280;63518;49.572;1.106;2023-03-21T04:29:32;99409.63;;;7.38;81.94
74960;BME280;63518;49.572;1.106;2023-03-21T04:32:02;99415.59;;;7.25;82.25
74960;BME280;63518;49.572;1.106;2023-03-21T04:34:29;99418.72;;;7.64;81.36
74960;BME280;63518;49.572;1.106;2023-03-21T04:36:56;99414.88;;;7.55;81.57
74960;BME280;63518;49.572;1.106;2023-03-21T04:39:24;99418.16;;;7.57;81.16
74960;BME280;63518;49.572;1.106;2023-03-21T04:41:51;99421.72;;;7.58;81.36
74960;BME280;63518;49.572;1.106;2023-03-21T04:44:18;99410.19;;;7.45;82.57
74960;BME280;63518;49.572;1.106;2023-03-21T04:46:45;99390.66;;;7.22;83.00
74960;BME280;63518;49.572;1.106;2023-03-21T04:49:13;99409.13;;;7.52;82.32
74960;BME280;63518;49.572;1.106;2023-03-21T04:51:40;99413.44;;;7.42;82.43
74960;BME280;63518;49.572;1.106;2023-03-21T04:54:09;99412.38;;;7.43;82.54
74960;BME280;63518;49.572;1.106;2023-03-21T04:56:38;99401.16;;;7.55;82.01
74960;BME280;63518;49.572;1.106;2023-03-21T04:59:11;99412.09;;;7.40;81.67
74960;BME280;63518;49.572;1.106;2023-03-21T05:01:38;99416.25;;;7.63;81.77
74960;BME280;63518;49.572;1.106;2023-03-21T05:04:07;99422.78;;;7.41;82.08
74960;BME280;63518;49.572;1.106;2023-03-21T05:06:34;99423.38;;;7.54;81.10
74960;BME280;63518;49.572;1.106;2023-03-21T05:09:03;99432.66;;;7.48;81.93
74960;BME280;63518;49.572;1.106;2023-03-21T05:11:36;99417.00;;;7.28;82.11
74960;BME280;63518;49.572;1.106;2023-03-21T05:14:04;99430.72;;;7.38;82.47
74960;BME280;63518;49.572;1.106;2023-03-21T05:16:32;99419.47;;;7.39;81.48
74960;BME280;63518;49.572;1.106;2023-03-21T05:19:01;99422.47;;;7.33;83.89
74960;BME280;63518;49.572;1.106;2023-03-21T05:21:31;99424.94;;;7.29;83.43
74960;BME280;63518;49.572;1.106;2023-03-21T05:24:08;99403.59;;;7.36;82.89
74960;BME280;63518;49.572;1.106;2023-03-21T05:26:39;99418.44;;;7.61;81.98
74960;BME280;63518;49.572;1.106;2023-03-21T05:29:07;99424.69;;;7.41;82.84
74960;BME280;63518;49.572;1.106;2023-03-21T05:31:35;99401.34;;;7.23;81.86
74960;BME280;63518;49.572;1.106;2023-03-21T05:34:02;99427.72;;;7.44;82.34
74960;BME280;63518;49.572;1.106;2023-03-21T05:36:29;99434.56;;;7.37;82.13
74960;BME280;63518;49.572;1.106;2023-03-21T05:38:59;99442.59;;;7.59;81.60
74960;BME280;63518;49.572;1.106;2023-03-21T05:41:27;99404.16;;;7.49;81.03
74960;BME280;63518;49.572;1.106;2023-03-21T05:43:55;99388.78;;;7.37;81.41
74960;BME280;63518;49.572;1.106;2023-03-21T05:46:21;99398.38;;;7.35;81.67
74960;BME280;63518;49.572;1.106;2023-03-21T05:48:49;99393.97;;;7.34;82.79
74960;BME280;63518;49.572;1.106;2023-03-21T05:51:17;99398.06;;;7.26;82.82
74960;BME280;63518;49.572;1.106;2023-03-21T05:53:46;99407.41;;;7.40;82.66
74960;BME280;63518;49.572;1.106;2023-03-21T05:56:14;99410.63;;;7.17;82.53
74960;BME280;63518;49.572;1.106;2023-03-21T05:58:41;99373.31;;;6.96;82.42
74960;BME280;63518;49.572;1.106;2023-03-21T06:01:08;99380.53;;;7.32;81.99
74960;BME280;63518;49.572;1.106;2023-03-21T06:03:35;99384.34;;;7.21;82.43
74960;BME280;63518;49.572;1.106;2023-03-21T06:06:03;99379.47;;;7.49;81.89
74960;BME280;63518;49.572;1.106;2023-03-21T06:08:30;99389.59;;;7.28;81.41
74960;BME280;63518;49.572;1.106;2023-03-21T06:10:58;99391.19;;;7.24;81.85
74960;BME280;63518;49.572;1.106;2023-03-21T06:13:25;99401.06;;;7.25;82.22
74960;BME280;63518;49.572;1.106;2023-03-21T06:15:52;99393.16;;;7.28;82.07
74960;BME280;63518;49.572;1.106;2023-03-21T06:18:19;99387.09;;;7.26;80.81
74960;BME280;63518;49.572;1.106;2023-03-21T06:20:46;99391.44;;;7.17;81.07
74960;BME280;63518;49.572;1.106;2023-03-21T06:23:13;99391.19;;;7.13;81.20
74960;BME280;63518;49.572;1.106;2023-03-21T06:25:41;99364.94;;;7.38;80.62
74960;BME280;63518;49.572;1.106;2023-03-21T06:28:08;99384.09;;;7.33;80.14
74960;BME280;63518;49.572;1.106;2023-03-21T06:30:35;99379.78;;;7.78;80.20
74960;BME280;63518;49.572;1.106;2023-03-21T06:33:05;99366.56;;;7.29;80.98
74960;BME280;63518;49.572;1.106;2023-03-21T06:35:32;99349.53;;;7.22;81.49
74960;BME280;63518;49.572;1.106;2023-03-21T06:37:59;99371.69;;;7.10;82.28
74960;BME280;63518;49.572;1.106;2023-03-21T06:40:26;99359.41;;;7.33;82.01
74960;BME280;63518;49.572;1.106;2023-03-21T06:42:54;99363.81;;;7.39;81.22
74960;BME280;63518;49.572;1.106;2023-03-21T06:45:21;99362.47;;;7.47;80.66
74960;BME280;63518;49.572;1.106;2023-03-21T06:47:49;99350.41;;;7.37;80.33
74960;BME280;63518;49.572;1.106;2023-03-21T06:50:16;99350.13;;;7.49;80.63
74960;BME280;63518;49.572;1.106;2023-03-21T06:52:43;99351.25;;;7.43;81.06
74960;BME280;63518;49.572;1.106;2023-03-21T06:55:10;99359.97;;;7.20;81.34
74960;BME280;63518;49.572;1.106;2023-03-21T06:57:37;99348.50;;;7.73;79.36
74960;BME280;63518;49.572;1.106;2023-03-21T07:00:04;99347.16;;;7.76;79.70
74960;BME280;63518;49.572;1.106;2023-03-21T07:02:34;99348.78;;;7.77;79.81
74960;BME280;63518;49.572;1.106;2023-03-21T07:05:01;99362.22;;;7.68;80.87
74960;BME280;63518;49.572;1.106;2023-03-21T07:07:29;99347.13;;;7.81;79.90
74960;BME280;63518;49.572;1.106;2023-03-21T07:09:56;99348.81;;;7.67;80.60
74960;BME280;63518;49.572;1.106;2023-03-21T07:12:25;99358.66;;;7.78;79.61
74960;BME280;63518;49.572;1.106;2023-03-21T07:14:52;99387.47;;;7.86;80.24
74960;BME280;63518;49.572;1.106;2023-03-21T07:17:19;99389.63;;;7.53;80.70
74960;BME280;63518;49.572;1.106;2023-03-21T07:19:46;99402.78;;;7.56;80.90
74960;BME280;63518;49.572;1.106;2023-03-21T07:22:15;99378.97;;;7.72;80.32
74960;BME280;63518;49.572;1.106;2023-03-21T07:24:43;99363.84;;;7.49;81.35
74960;BME280;63518;49.572;1.106;2023-03-21T07:27:15;99385.28;;;7.78;80.35
74960;BME280;63518;49.572;1.106;2023-03-21T07:29:42;99392.69;;;7.87;80.38
74960;BME280;63518;49.572;1.106;2023-03-21T07:32:11;99359.22;;;8.16;79.64
74960;BME280;63518;49.572;1.106;2023-03-21T07:34:38;99376.50;;;7.76;80.14
74960;BME280;63518;49.572;1.106;2023-03-21T07:37:05;99360.59;;;7.88;79.65
74960;BME280;63518;49.572;1.106;2023-03-21T07:39:33;99386.94;;;8.09;77.87
74960;BME280;63518;49.572;1.106;2023-03-21T07:42:00;99353.72;;;8.11;79.02
74960;BME280;63518;49.572;1.106;2023-03-21T07:44:28;99378.69;;;8.40;77.65
74960;BME280;63518;49.572;1.106;2023-03-21T07:46:56;99393.47;;;8.54;76.93
74960;BME280;63518;49.572;1.106;2023-03-21T07:49:23;99374.00;;;8.45;78.36
74960;BME280;63518;49.572;1.106;2023-03-21T07:51:50;99392.97;;;8.26;79.34
74960;BME280;63518;49.572;1.106;2023-03-21T07:54:24;99391.03;;;8.27;78.74
74960;BME280;63518;49.572;1.106;2023-03-21T07:56:51;99386.03;;;8.60;77.43
74960;BME280;63518;49.572;1.106;2023-03-21T07:59:18;99399.75;;;8.80;75.77
74960;BME280;63518;49.572;1.106;2023-03-21T08:01:45;99405.00;;;8.56;77.87
74960;BME280;63518;49.572;1.106;2023-03-21T08:04:12;99398.06;;;8.89;77.40
74960;BME280;63518;49.572;1.106;2023-03-21T08:06:40;99403.88;;;8.82;76.61
74960;BME280;63518;49.572;1.106;2023-03-21T08:09:07;99367.91;;;8.64;77.63
74960;BME280;63518;49.572;1.106;2023-03-21T08:11:34;99369.03;;;8.47;78.02
74960;BME280;63518;49.572;1.106;2023-03-21T08:14:01;99384.84;;;9.01;76.22
74960;BME280;63518;49.572;1.106;2023-03-21T08:16:28;99397.28;;;9.43;76.11
74960;BME280;63518;49.572;1.106;2023-03-21T08:18:55;99389.63;;;9.35;75.43
74960;BME280;63518;49.572;1.106;2023-03-21T08:21:22;99393.13;;;8.91;78.59
74960;BME280;63518;49.572;1.106;2023-03-21T08:23:49;99395.03;;;8.96;77.53
74960;BME280;63518;49.572;1.106;2023-03-21T08:26:17;99405.63;;;9.28;75.73
74960;BME280;63518;49.572;1.106;2023-03-21T08:28:45;99401.75;;;9.29;76.38
74960;BME280;63518;49.572;1.106;2023-03-21T08:31:13;99410.75;;;9.45;76.58
74960;BME280;63518;49.572;1.106;2023-03-21T08:33:40;99404.06;;;9.56;75.26
74960;BME280;63518;49.572;1.106;2023-03-21T08:36:08;99394.94;;;9.16;76.96
74960;BME280;63518;49.572;1.106;2023-03-21T08:38:36;99395.28;;;9.54;76.14
74960;BME280;63518;49.572;1.106;2023-03-21T08:41:03;99382.78;;;9.72;75.46
74960;BME280;63518;49.572;1.106;2023-03-21T08:43:30;99394.66;;;9.67;75.14
74960;BME280;63518;49.572;1.106;2023-03-21T08:45:57;99394.97;;;10.00;74.88
74960;BME280;63518;49.572;1.106;2023-03-21T08:48:24;99381.38;;;9.35;76.49
74960;BME280;63518;49.572;1.106;2023-03-21T08:50:51;99388.53;;;9.80;76.15
74960;BME280;63518;49.572;1.106;2023-03-21T08:53:18;99401.66;;;9.49;76.29
74960;BME280;63518;49.572;1.106;2023-03-21T08:55:45;99381.59;;;9.88;74.82
74960;BME280;63518;49.572;1.106;2023-03-21T08:58:12;99378.50;;;9.55;76.29
74960;BME280;63518;49.572;1.106;2023-03-21T09:00:39;99377.63;;;9.65;75.36
74960;BME280;63518;49.572;1.106;2023-03-21T09:03:07;99383.88;;;10.10;75.36
74960;BME280;63518;49.572;1.106;2023-03-21T09:05:37;99393.28;;;10.43;72.67
74960;BME280;63518;49.572;1.106;2023-03-21T09:08:05;99381.75;;;10.02;74.62
74960;BME280;63518;49.572;1.106;2023-03-21T09:10:32;99392.31;;;10.23;74.05
74960;BME280;63518;49.572;1.106;2023-03-21T09:13:00;99389.34;;;9.81;76.47
74960;BME280;63518;49.572;1.106;2023-03-21T09:15:27;99381.81;;;10.25;74.35
74960;BME280;63518;49.572;1.106;2023-03-21T09:17:56;99403.41;;;10.76;73.38
74960;BME280;63518;49.572;1.106;2023-03-21T09:20:24;99402.47;;;10.28;74.84
74960;BME280;63518;49.572;1.106;2023-03-21T09:22:56;99403.03;;;10.59;73.92
74960;BME280;63518;49.572;1.106;2023-03-21T09:25:24;99409.03;;;10.37;74.23
74960;BME280;63518;49.572;1.106;2023-03-21T09:27:55;99418.63;;;10.69;73.53
74960;BME280;63518;49.572;1.106;2023-03-21T09:30:23;99427.72;;;10.40;75.17
74960;BME280;63518;49.572;1.106;2023-03-21T09:32:52;99419.91;;;10.52;73.23
74960;BME280;63518;49.572;1.106;2023-03-21T09:35:21;99423.47;;;10.53;74.30
74960;BME280;63518;49.572;1.106;2023-03-21T09:37:48;99428.78;;;10.44;75.21
74960;BME280;63518;49.572;1.106;2023-03-21T09:40:16;99421.41;;;10.35;74.70
74960;BME280;63518;49.572;1.106;2023-03-21T09:42:55;99426.69;;;10.31;75.35
74960;BME280;63518;49.572;1.106;2023-03-21T09:46:01;99428.25;;;10.42;73.67
74960;BME280;63518;49.572;1.106;2023-03-21T09:48:23;99435.31;;;10.54;74.46
74960;BME280;63518;49.572;1.106;2023-03-21T09:50:56;99451.59;;;10.50;75.61
74960;BME280;63518;49.572;1.106;2023-03-21T09:53:25;99451.22;;;10.62;74.01
74960;BME280;63518;49.572;1.106;2023-03-21T09:55:54;99453.34;;;10.99;73.73
74960;BME280;63518;49.572;1.106;2023-03-21T09:58:29;99454.19;;;10.70;74.02
74960;BME280;63518;49.572;1.106;2023-03-21T10:01:04;99443.63;;;10.48;75.69
74960;BME280;63518;49.572;1.106;2023-03-21T10:03:34;99449.16;;;10.77;74.25
74960;BME280;63518;49.572;1.106;2023-03-21T10:06:03;99454.09;;;11.04;73.71
74960;BME280;63518;49.572;1.106;2023-03-21T10:08:34;99446.34;;;10.83;75.11
74960;BME280;63518;49.572;1.106;2023-03-21T10:11:15;99447.94;;;10.60;74.90
74960;BME280;63518;49.572;1.106;2023-03-21T10:16:26;99446.75;;;10.66;74.90
74960;BME280;63518;49.572;1.106;2023-03-21T10:18:54;99458.09;;;10.64;75.34
74960;BME280;63518;49.572;1.106;2023-03-21T10:21:22;99446.31;;;10.59;75.57
74960;BME280;63518;49.572;1.106;2023-03-21T10:24:13;99445.88;;;10.75;76.28
74960;BME280;63518;49.572;1.106;2023-03-21T10:26:42;99444.25;;;10.69;76.60
74960;BME280;63518;49.572;1.106;2023-03-21T10:29:11;99449.28;;;11.15;74.83
74960;BME280;63518;49.572;1.106;2023-03-21T10:31:39;99438.69;;;11.46;74.37
74960;BME280;63518;49.572;1.106;2023-03-21T10:34:23;99441.91;;;11.77;73.03
74960;BME280;63518;49.572;1.106;2023-03-21T10:36:52;99452.03;;;12.01;72.22
74960;BME280;63518;49.572;1.106;2023-03-21T10:41:54;99441.34;;;11.32;75.21
74960;BME280;63518;49.572;1.106;2023-03-21T10:44:21;99441.34;;;11.32;75.21
74960;BME280;63518;49.572;1.106;2023-03-21T10:46:55;99441.88;;;11.34;75.49
74960;BME280;63518;49.572;1.106;2023-03-21T10:49:23;99436.47;;;11.48;74.76
74960;BME280;63518;49.572;1.106;2023-03-21T10:51:53;99435.16;;;11.83;74.38
74960;BME280;63518;49.572;1.106;2023-03-21T10:54:23;99425.28;;;12.47;73.37
74960;BME280;63518;49.572;1.106;2023-03-21T10:56:57;99428.28;;;12.18;74.17
74960;BME280;63518;49.572;1.106;2023-03-21T10:59:26;99416.78;;;12.44;73.54
74960;BME280;63518;49.572;1.106;2023-03-21T11:02:01;99420.59;;;13.08;72.26
74960;BME280;63518;49.572;1.106;2023-03-21T11:04:29;99416.75;;;12.77;73.76
74960;BME280;63518;49.572;1.106;2023-03-21T11:06:57;99402.78;;;13.00;71.53
74960;BME280;63518;49.572;1.106;2023-03-21T11:09:26;99407.00;;;13.75;69.37
74960;BME280;63518;49.572;1.106;2023-03-21T11:12:11;99405.16;;;14.07;66.64
74960;BME280;63518;49.572;1.106;2023-03-21T11:14:40;99404.72;;;13.77;67.93
74960;BME280;63518;49.572;1.106;2023-03-21T11:19:47;99410.94;;;13.47;69.12
74960;BME280;63518;49.572;1.106;2023-03-21T11:22:14;99413.00;;;13.41;68.19
74960;BME280;63518;49.572;1.106;2023-03-21T11:24:40;99412.25;;;13.49;65.94
74960;BME280;63518;49.572;1.106;2023-03-21T11:27:07;99400.44;;;13.71;67.39
74960;BME280;63518;49.572;1.106;2023-03-21T11:29:38;99398.78;;;14.06;64.87
74960;BME280;63518;49.572;1.106;2023-03-21T11:32:15;99405.38;;;13.61;67.32
74960;BME280;63518;49.572;1.106;2023-03-21T11:34:47;99407.06;;;13.84;65.50
74960;BME280;63518;49.572;1.106;2023-03-21T11:39:44;99393.38;;;13.65;65.15
74960;BME280;63518;49.572;1.106;2023-03-21T11:42:31;99381.31;;;13.83;64.73
74960;BME280;63518;49.572;1.106;2023-03-21T11:44:59;99386.06;;;14.28;62.94
74960;BME280;63518;49.572;1.106;2023-03-21T11:47:27;99382.84;;;14.34;65.33
74960;BME280;63518;49.572;1.106;2023-03-21T11:49:54;99378.38;;;14.47;64.69
74960;BME280;63518;49.572;1.106;2023-03-21T12:00:51;99378.06;;;15.19;61.45
74960;BME280;63518;49.572;1.106;2023-03-21T12:06:40;99360.63;;;14.88;61.79
74960;BME280;63518;49.572;1.106;2023-03-21T12:17:04;99356.19;;;13.80;64.48
74960;BME280;63518;49.572;1.106;2023-03-21T12:19:51;99367.00;;;14.26;62.85
74960;BME280;63518;49.572;1.106;2023-03-21T12:25:12;99348.00;;;14.42;62.33
74960;BME280;63518;49.572;1.106;2023-03-21T12:28:00;99346.88;;;14.21;61.04
74960;BME280;63518;49.572;1.106;2023-03-21T12:33:24;99336.50;;;15.06;60.14
74960;BME280;63518;49.572;1.106;2023-03-21T12:38:17;99332.81;;;14.71;61.00
74960;BME280;63518;49.572;1.106;2023-03-21T12:40:50;99315.66;;;14.68;62.13
74960;BME280;63518;49.572;1.106;2023-03-21T12:43:27;99319.50;;;14.90;60.92
74960;BME280;63518;49.572;1.106;2023-03-21T12:45:57;99326.31;;;14.44;63.59
74960;BME280;63518;49.572;1.106;2023-03-21T12:48:32;99327.84;;;14.59;61.01
74960;BME280;63518;49.572;1.106;2023-03-21T12:51:02;99316.19;;;14.39;62.82
74960;BME280;63518;49.572;1.106;2023-03-21T12:56:02;99308.22;;;14.78;62.02
74960;BME280;63518;49.572;1.106;2023-03-21T12:58:30;99303.38;;;14.61;63.57
74960;BME280;63518;49.572;1.106;2023-03-21T13:01:01;99307.09;;;14.87;61.37
74960;BME280;63518;49.572;1.106;2023-03-21T13:03:49;99304.75;;;14.72;61.38
74960;BME280;63518;49.572;1.106;2023-03-21T13:06:18;99303.16;;;14.40;64.08
74960;BME280;63518;49.572;1.106;2023-03-21T13:08:57;99321.41;;;14.41;62.95
74960;BME280;63518;49.572;1.106;2023-03-21T13:11:26;99312.44;;;14.44;62.23
74960;BME280;63518;49.572;1.106;2023-03-21T13:16:28;99311.16;;;15.64;61.26
74960;BME280;63518;49.572;1.106;2023-03-21T13:27:00;99293.00;;;15.84;54.49
74960;BME280;63518;49.572;1.106;2023-03-21T13:31:55;99298.22;;;15.86;58.04
74960;BME280;63518;49.572;1.106;2023-03-21T13:34:24;99304.53;;;16.38;57.07
74960;BME280;63518;49.572;1.106;2023-03-21T13:36:52;99304.56;;;16.03;57.73
74960;BME280;63518;49.572;1.106;2023-03-21T13:39:25;99300.69;;;15.96;58.86
74960;BME280;63518;49.572;1.106;2023-03-21T13:41:53;99298.06;;;15.82;58.17
74960;BME280;63518;49.572;1.106;2023-03-21T13:44:30;99301.66;;;15.83;58.29
74960;BME280;63518;49.572;1.106;2023-03-21T13:49:26;99292.63;;;16.20;56.79
74960;BME280;63518;49.572;1.106;2023-03-21T13:51:54;99283.31;;;16.07;56.87
74960;BME280;63518;49.572;1.106;2023-03-21T13:56:54;99275.03;;;15.47;58.56
74960;BME280;63518;49.572;1.106;2023-03-21T14:04:43;99277.28;;;15.97;58.83
74960;BME280;63518;49.572;1.106;2023-03-21T14:07:30;99276.50;;;15.36;58.90
74960;BME280;63518;49.572;1.106;2023-03-21T14:10:03;99288.38;;;15.10;59.93
74960;BME280;63518;49.572;1.106;2023-03-21T14:12:41;99299.13;;;15.03;59.79
74960;BME280;63518;49.572;1.106;2023-03-21T14:15:13;99286.97;;;14.33;61.95
74960;BME280;63518;49.572;1.106;2023-03-21T14:17:54;99299.78;;;14.21;62.32
74960;BME280;63518;49.572;1.106;2023-03-21T14:20:23;99292.88;;;14.40;63.18
74960;BME280;63518;49.572;1.106;2023-03-21T14:22:50;99289.53;;;14.30;63.68
74960;BME280;63518;49.572;1.106;2023-03-21T14:25:19;99295.84;;;14.22;65.22
74960;BME280;63518;49.572;1.106;2023-03-21T14:27:47;99299.53;;;14.71;63.92
74960;BME280;63518;49.572;1.106;2023-03-21T14:30:23;99267.94;;;14.49;64.12
74960;BME280;63518;49.572;1.106;2023-03-21T14:32:57;99289.09;;;15.59;62.00
74960;BME280;63518;49.572;1.106;2023-03-21T14:35:27;99283.91;;;15.01;64.40
74960;BME280;63518;49.572;1.106;2023-03-21T14:38:00;99269.19;;;16.39;59.65
74960;BME280;63518;49.572;1.106;2023-03-21T14:40:28;99281.25;;;15.61;61.09
74960;BME280;63518;49.572;1.106;2023-03-21T14:42:55;99275.16;;;16.58;60.10
74960;BME280;63518;49.572;1.106;2023-03-21T14:45:26;99276.22;;;17.04;58.47
74960;BME280;63518;49.572;1.106;2023-03-21T14:50:21;99274.81;;;15.95;59.88
74960;BME280;63518;49.572;1.106;2023-03-21T14:52:51;99273.00;;;16.93;56.92
74960;BME280;63518;49.572;1.106;2023-03-21T14:55:18;99273.78;;;17.32;55.05
74960;BME280;63518;49.572;1.106;2023-03-21T14:57:45;99280.28;;;17.06;57.33
74960;BME280;63518;49.572;1.106;2023-03-21T15:00:19;99281.03;;;16.56;58.67
74960;BME280;63518;49.572;1.106;2023-03-21T15:02:46;99266.47;;;15.95;61.13
74960;BME280;63518;49.572;1.106;2023-03-21T15:05:22;99273.09;;;14.33;63.28
74960;BME280;63518;49.572;1.106;2023-03-21T15:07:51;99281.47;;;14.42;65.18